sensor_id;sensor_type;location;lat;lon;timestamp;temperature;humidity
61807;DHT22;47726;52.766;6.606;2022-08-14T00:00:45;23.40;71.90
61807;DHT22;47726;52.766;6.606;2022-08-14T00:03:37;23.40;72.40
61807;DHT22;47726;52.766;6.606;2022-08-14T00:06:03;23.40;73.60
61807;DHT22;47726;52.766;6.606;2022-08-14T00:08:29;23.40;73.50
61807;DHT22;47726;52.766;6.606;2022-08-14T00:10:55;23.40;73.00
61807;DHT22;47726;52.766;6.606;2022-08-14T00:13:23;23.30;73.30
61807;DHT22;47726;52.766;6.606;2022-08-14T00:15:53;23.30;73.80
61807;DHT22;47726;52.766;6.606;2022-08-14T00:18:22;23.30;75.00
61807;DHT22;47726;52.766;6.606;2022-08-14T00:20:49;23.20;74.40
61807;DHT22;47726;52.766;6.606;2022-08-14T00:23:15;23.20;74.70
61807;DHT22;47726;52.766;6.606;2022-08-14T00:25:44;23.20;75.00
61807;DHT22;47726;52.766;6.606;2022-08-14T00:28:12;23.20;75.10
61807;DHT22;47726;52.766;6.606;2022-08-14T00:30:39;23.20;75.30
61807;DHT22;47726;52.766;6.606;2022-08-14T00:33:04;23.10;75.40
61807;DHT22;47726;52.766;6.606;2022-08-14T00:35:31;23.10;75.70
61807;DHT22;47726;52.766;6.606;2022-08-14T00:37:56;23.10;75.70
61807;DHT22;47726;52.766;6.606;2022-08-14T00:40:23;23.10;75.80
61807;DHT22;47726;52.766;6.606;2022-08-14T00:42:49;23.10;76.00
61807;DHT22;47726;52.766;6.606;2022-08-14T00:45:15;23.00;76.30
61807;DHT22;47726;52.766;6.606;2022-08-14T00:47:42;23.10;76.90
61807;DHT22;47726;52.766;6.606;2022-08-14T00:50:11;23.00;76.90
61807;DHT22;47726;52.766;6.606;2022-08-14T00:52:37;23.00;77.20
61807;DHT22;47726;52.766;6.606;2022-08-14T00:55:04;22.90;77.60
61807;DHT22;47726;52.766;6.606;2022-08-14T00:57:33;22.90;78.00
61807;DHT22;47726;52.766;6.606;2022-08-14T00:59:59;22.90;78.60
61807;DHT22;47726;52.766;6.606;2022-08-14T01:02:25;22.90;78.70
61807;DHT22;47726;52.766;6.606;2022-08-14T01:04:54;22.80;79.90
61807;DHT22;47726;52.766;6.606;2022-08-14T01:07:24;22.70;79.60
61807;DHT22;47726;52.766;6.606;2022-08-14T01:09:52;22.70;80.70
61807;DHT22;47726;52.766;6.606;2022-08-14T01:12:19;22.70;80.30
61807;DHT22;47726;52.766;6.606;2022-08-14T01:14:46;22.60;80.60
61807;DHT22;47726;52.766;6.606;2022-08-14T01:17:12;22.60;80.80
61807;DHT22;47726;52.766;6.606;2022-08-14T01:19:38;22.60;81.30
61807;DHT22;47726;52.766;6.606;2022-08-14T01:22:22;22.50;81.60
61807;DHT22;47726;52.766;6.606;2022-08-14T01:24:48;22.50;81.80
61807;DHT22;47726;52.766;6.606;2022-08-14T01:27:18;22.50;82.20
61807;DHT22;47726;52.766;6.606;2022-08-14T01:29:46;22.40;82.60
61807;DHT22;47726;52.766;6.606;2022-08-14T01:32:12;22.40;83.00
61807;DHT22;47726;52.766;6.606;2022-08-14T01:34:38;22.40;83.20
61807;DHT22;47726;52.766;6.606;2022-08-14T01:37:04;22.30;83.30
61807;DHT22;47726;52.766;6.606;2022-08-14T01:39:31;22.30;83.30
61807;DHT22;47726;52.766;6.606;2022-08-14T01:41:57;22.30;83.70
61807;DHT22;47726;52.766;6.606;2022-08-14T01:44:27;22.20;84.10
61807;DHT22;47726;52.766;6.606;2022-08-14T01:46:57;22.20;84.40
61807;DHT22;47726;52.766;6.606;2022-08-14T01:49:23;22.20;85.00
61807;DHT22;47726;52.766;6.606;2022-08-14T01:51:49;22.20;85.20
61807;DHT22;47726;52.766;6.606;2022-08-14T01:54:21;22.10;85.10
61807;DHT22;47726;52.766;6.606;2022-08-14T01:56:50;22.10;85.40
61807;DHT22;47726;52.766;6.606;2022-08-14T02:01:43;22.00;85.90
61807;DHT22;47726;52.766;6.606;2022-08-14T02:04:10;22.00;86.10
61807;DHT22;47726;52.766;6.606;2022-08-14T02:06:36;22.00;87.10
61807;DHT22;47726;52.766;6.606;2022-08-14T02:09:04;22.00;86.50
61807;DHT22;47726;52.766;6.606;2022-08-14T02:11:30;21.90;87.00
61807;DHT22;47726;52.766;6.606;2022-08-14T02:13:59;21.90;87.20
61807;DHT22;47726;52.766;6.606;2022-08-14T02:16:30;21.90;87.60
61807;DHT22;47726;52.766;6.606;2022-08-14T02:19:00;21.80;87.90
61807;DHT22;47726;52.766;6.606;2022-08-14T02:21:28;21.80;88.00
61807;DHT22;47726;52.766;6.606;2022-08-14T02:23:56;21.80;88.10
61807;DHT22;47726;52.766;6.606;2022-08-14T02:26:25;21.70;88.30
61807;DHT22;47726;52.766;6.606;2022-08-14T02:28:54;21.70;88.50
61807;DHT22;47726;52.766;6.606;2022-08-14T02:31:20;21.70;88.70
61807;DHT22;47726;52.766;6.606;2022-08-14T02:33:46;21.70;89.00
61807;DHT22;47726;52.766;6.606;2022-08-14T02:36:13;21.60;89.20
61807;DHT22;47726;52.766;6.606;2022-08-14T02:38:39;21.60;89.30
61807;DHT22;47726;52.766;6.606;2022-08-14T02:41:10;21.60;89.60
61807;DHT22;47726;52.766;6.606;2022-08-14T02:43:38;21.60;89.90
61807;DHT22;47726;52.766;6.606;2022-08-14T02:46:08;21.50;90.00
61807;DHT22;47726;52.766;6.606;2022-08-14T02:48:43;21.50;90.30
61807;DHT22;47726;52.766;6.606;2022-08-14T02:51:11;21.50;90.30
61807;DHT22;47726;52.766;6.606;2022-08-14T02:53:39;21.50;90.20
61807;DHT22;47726;52.766;6.606;2022-08-14T02:56:06;21.50;90.30
61807;DHT22;47726;52.766;6.606;2022-08-14T02:58:36;21.50;90.20
61807;DHT22;47726;52.766;6.606;2022-08-14T03:01:04;21.50;90.10
61807;DHT22;47726;52.766;6.606;2022-08-14T03:03:29;21.50;90.20
61807;DHT22;47726;52.766;6.606;2022-08-14T03:05:55;21.50;90.20
61807;DHT22;47726;52.766;6.606;2022-08-14T03:08:22;21.50;90.20
61807;DHT22;47726;52.766;6.606;2022-08-14T03:10:53;21.50;90.30
61807;DHT22;47726;52.766;6.606;2022-08-14T03:13:19;21.50;90.50
61807;DHT22;47726;52.766;6.606;2022-08-14T03:15:45;21.50;90.50
61807;DHT22;47726;52.766;6.606;2022-08-14T03:18:12;21.50;90.50
61807;DHT22;47726;52.766;6.606;2022-08-14T03:20:38;21.50;90.70
61807;DHT22;47726;52.766;6.606;2022-08-14T03:23:04;21.40;90.80
61807;DHT22;47726;52.766;6.606;2022-08-14T03:25:31;21.50;90.80
61807;DHT22;47726;52.766;6.606;2022-08-14T03:28:00;21.40;90.90
61807;DHT22;47726;52.766;6.606;2022-08-14T03:30:29;21.40;91.10
61807;DHT22;47726;52.766;6.606;2022-08-14T03:32:56;21.40;91.00
61807;DHT22;47726;52.766;6.606;2022-08-14T03:35:22;21.40;91.00
61807;DHT22;47726;52.766;6.606;2022-08-14T03:37:48;21.30;91.10
61807;DHT22;47726;52.766;6.606;2022-08-14T03:40:15;21.30;91.30
61807;DHT22;47726;52.766;6.606;2022-08-14T03:42:41;21.30;91.50
61807;DHT22;47726;52.766;6.606;2022-08-14T03:45:07;21.30;91.50
61807;DHT22;47726;52.766;6.606;2022-08-14T03:47:32;21.30;91.60
61807;DHT22;47726;52.766;6.606;2022-08-14T03:50:01;21.30;91.60
61807;DHT22;47726;52.766;6.606;2022-08-14T03:52:26;21.20;91.90
61807;DHT22;47726;52.766;6.606;2022-08-14T03:54:52;21.20;92.00
61807;DHT22;47726;52.766;6.606;2022-08-14T03:57:18;21.10;92.00
61807;DHT22;47726;52.766;6.606;2022-08-14T03:59:44;21.10;92.00
61807;DHT22;47726;52.766;6.606;2022-08-14T04:02:10;21.10;92.20
61807;DHT22;47726;52.766;6.606;2022-08-14T04:04:35;21.10;92.30
61807;DHT22;47726;52.766;6.606;2022-08-14T04:07:02;21.10;92.40
61807;DHT22;47726;52.766;6.606;2022-08-14T04:09:28;21.00;92.60
61807;DHT22;47726;52.766;6.606;2022-08-14T04:11:54;21.00;92.50
61807;DHT22;47726;52.766;6.606;2022-08-14T04:14:20;21.00;92.90
61807;DHT22;47726;52.766;6.606;2022-08-14T04:16:45;21.00;92.70
61807;DHT22;47726;52.766;6.606;2022-08-14T04:19:12;21.00;92.90
61807;DHT22;47726;52.766;6.606;2022-08-14T04:21:40;21.00;93.00
61807;DHT22;47726;52.766;6.606;2022-08-14T04:24:06;20.90;93.00
61807;DHT22;47726;52.766;6.606;2022-08-14T04:26:31;20.90;93.10
61807;DHT22;47726;52.766;6.606;2022-08-14T04:28:57;20.90;93.10
61807;DHT22;47726;52.766;6.606;2022-08-14T04:31:24;20.90;93.20
61807;DHT22;47726;52.766;6.606;2022-08-14T04:33:50;20.90;93.40
61807;DHT22;47726;52.766;6.606;2022-08-14T04:36:17;20.90;93.50
61807;DHT22;47726;52.766;6.606;2022-08-14T04:38:43;20.90;93.60
61807;DHT22;47726;52.766;6.606;2022-08-14T04:41:27;20.90;93.60
61807;DHT22;47726;52.766;6.606;2022-08-14T04:44:12;20.90;93.90
61807;DHT22;47726;52.766;6.606;2022-08-14T04:46:37;20.90;93.90
61807;DHT22;47726;52.766;6.606;2022-08-14T04:49:03;20.90;93.90
61807;DHT22;47726;52.766;6.606;2022-08-14T04:51:30;20.90;94.10
61807;DHT22;47726;52.766;6.606;2022-08-14T04:53:58;20.90;94.10
61807;DHT22;47726;52.766;6.606;2022-08-14T04:56:25;20.90;94.20
61807;DHT22;47726;52.766;6.606;2022-08-14T04:58:58;20.90;94.30
61807;DHT22;47726;52.766;6.606;2022-08-14T05:01:25;20.90;94.50
61807;DHT22;47726;52.766;6.606;2022-08-14T05:03:51;20.90;94.40
61807;DHT22;47726;52.766;6.606;2022-08-14T05:06:17;20.90;94.30
61807;DHT22;47726;52.766;6.606;2022-08-14T05:08:43;20.90;94.30
61807;DHT22;47726;52.766;6.606;2022-08-14T05:11:09;20.90;94.50
61807;DHT22;47726;52.766;6.606;2022-08-14T05:13:36;21.00;94.50
61807;DHT22;47726;52.766;6.606;2022-08-14T05:16:03;21.00;94.50
61807;DHT22;47726;52.766;6.606;2022-08-14T05:18:33;21.00;94.80
61807;DHT22;47726;52.766;6.606;2022-08-14T05:21:01;21.00;94.70
61807;DHT22;47726;52.766;6.606;2022-08-14T05:23:30;21.00;94.70
61807;DHT22;47726;52.766;6.606;2022-08-14T05:25:58;21.00;95.10
61807;DHT22;47726;52.766;6.606;2022-08-14T05:28:39;21.00;94.90
61807;DHT22;47726;52.766;6.606;2022-08-14T05:31:10;21.00;94.90
61807;DHT22;47726;52.766;6.606;2022-08-14T05:33:36;21.00;94.80
61807;DHT22;47726;52.766;6.606;2022-08-14T05:36:05;21.10;94.90
61807;DHT22;47726;52.766;6.606;2022-08-14T05:38:32;21.10;94.70
61807;DHT22;47726;52.766;6.606;2022-08-14T05:41:08;21.10;94.60
61807;DHT22;47726;52.766;6.606;2022-08-14T05:43:34;21.20;94.60
61807;DHT22;47726;52.766;6.606;2022-08-14T05:46:00;21.20;94.60
61807;DHT22;47726;52.766;6.606;2022-08-14T05:48:26;21.20;95.30
61807;DHT22;47726;52.766;6.606;2022-08-14T05:50:53;21.20;95.00
61807;DHT22;47726;52.766;6.606;2022-08-14T05:53:28;21.30;95.20
61807;DHT22;47726;52.766;6.606;2022-08-14T05:55:54;21.30;95.50
61807;DHT22;47726;52.766;6.606;2022-08-14T05:58:21;21.40;95.60
61807;DHT22;47726;52.766;6.606;2022-08-14T06:00:49;21.50;95.60
61807;DHT22;47726;52.766;6.606;2022-08-14T06:03:18;21.70;95.60
61807;DHT22;47726;52.766;6.606;2022-08-14T06:05:45;21.80;95.50
61807;DHT22;47726;52.766;6.606;2022-08-14T06:08:26;22.00;95.40
61807;DHT22;47726;52.766;6.606;2022-08-14T06:10:54;22.20;95.80
61807;DHT22;47726;52.766;6.606;2022-08-14T06:13:21;22.30;95.20
61807;DHT22;47726;52.766;6.606;2022-08-14T06:15:47;22.50;95.00
61807;DHT22;47726;52.766;6.606;2022-08-14T06:18:16;22.70;94.90
61807;DHT22;47726;52.766;6.606;2022-08-14T06:20:42;22.90;94.60
61807;DHT22;47726;52.766;6.606;2022-08-14T06:23:08;23.10;94.30
61807;DHT22;47726;52.766;6.606;2022-08-14T06:25:33;23.30;94.00
61807;DHT22;47726;52.766;6.606;2022-08-14T06:27:59;23.50;93.60
61807;DHT22;47726;52.766;6.606;2022-08-14T06:30:28;23.80;93.20
61807;DHT22;47726;52.766;6.606;2022-08-14T06:32:54;24.00;93.10
61807;DHT22;47726;52.766;6.606;2022-08-14T06:35:20;24.20;92.90
61807;DHT22;47726;52.766;6.606;2022-08-14T06:37:53;24.40;92.70
61807;DHT22;47726;52.766;6.606;2022-08-14T06:40:28;24.60;92.20
61807;DHT22;47726;52.766;6.606;2022-08-14T06:43:03;24.80;91.90
61807;DHT22;47726;52.766;6.606;2022-08-14T06:45:33;25.00;91.70
61807;DHT22;47726;52.766;6.606;2022-08-14T06:48:00;25.10;91.40
61807;DHT22;47726;52.766;6.606;2022-08-14T06:50:26;25.30;91.10
61807;DHT22;47726;52.766;6.606;2022-08-14T06:52:53;25.40;91.10
61807;DHT22;47726;52.766;6.606;2022-08-14T06:55:19;25.60;90.60
61807;DHT22;47726;52.766;6.606;2022-08-14T06:57:49;25.80;90.30
61807;DHT22;47726;52.766;6.606;2022-08-14T07:00:18;26.00;90.00
61807;DHT22;47726;52.766;6.606;2022-08-14T07:02:44;26.10;89.40
61807;DHT22;47726;52.766;6.606;2022-08-14T07:05:29;26.30;89.10
61807;DHT22;47726;52.766;6.606;2022-08-14T07:08:22;26.40;88.60
61807;DHT22;47726;52.766;6.606;2022-08-14T07:10:53;26.60;87.50
61807;DHT22;47726;52.766;6.606;2022-08-14T07:13:19;26.80;87.30
61807;DHT22;47726;52.766;6.606;2022-08-14T07:15:47;26.90;86.60
61807;DHT22;47726;52.766;6.606;2022-08-14T07:18:21;27.00;85.90
61807;DHT22;47726;52.766;6.606;2022-08-14T07:20:47;27.10;85.30
61807;DHT22;47726;52.766;6.606;2022-08-14T07:23:13;27.20;85.30
61807;DHT22;47726;52.766;6.606;2022-08-14T07:25:41;27.40;85.30
61807;DHT22;47726;52.766;6.606;2022-08-14T07:28:15;27.50;84.80
61807;DHT22;47726;52.766;6.606;2022-08-14T07:30:42;27.70;84.10
61807;DHT22;47726;52.766;6.606;2022-08-14T07:33:09;27.80;83.60
61807;DHT22;47726;52.766;6.606;2022-08-14T07:35:35;28.00;83.40
61807;DHT22;47726;52.766;6.606;2022-08-14T07:38:05;28.20;83.30
61807;DHT22;47726;52.766;6.606;2022-08-14T07:40:31;28.30;82.10
61807;DHT22;47726;52.766;6.606;2022-08-14T07:42:59;28.30;81.70
61807;DHT22;47726;52.766;6.606;2022-08-14T07:45:26;28.40;80.80
61807;DHT22;47726;52.766;6.606;2022-08-14T07:47:52;28.50;80.60
61807;DHT22;47726;52.766;6.606;2022-08-14T07:50:20;28.70;80.00
61807;DHT22;47726;52.766;6.606;2022-08-14T07:52:47;28.80;79.70
61807;DHT22;47726;52.766;6.606;2022-08-14T07:55:14;28.90;78.90
61807;DHT22;47726;52.766;6.606;2022-08-14T07:57:41;29.00;78.10
61807;DHT22;47726;52.766;6.606;2022-08-14T08:00:14;29.10;78.00
61807;DHT22;47726;52.766;6.606;2022-08-14T08:02:43;29.20;77.50
61807;DHT22;47726;52.766;6.606;2022-08-14T08:05:10;29.20;77.50
61807;DHT22;47726;52.766;6.606;2022-08-14T08:07:37;29.40;77.40
61807;DHT22;47726;52.766;6.606;2022-08-14T08:10:10;29.50;77.20
61807;DHT22;47726;52.766;6.606;2022-08-14T08:12:57;29.70;76.60
61807;DHT22;47726;52.766;6.606;2022-08-14T08:15:24;29.80;76.00
61807;DHT22;47726;52.766;6.606;2022-08-14T08:17:49;30.00;75.10
61807;DHT22;47726;52.766;6.606;2022-08-14T08:20:18;30.10;74.60
61807;DHT22;47726;52.766;6.606;2022-08-14T08:22:45;30.20;74.10
61807;DHT22;47726;52.766;6.606;2022-08-14T08:25:11;30.20;73.20
61807;DHT22;47726;52.766;6.606;2022-08-14T08:27:37;30.40;73.20
61807;DHT22;47726;52.766;6.606;2022-08-14T08:30:07;30.50;72.70
61807;DHT22;47726;52.766;6.606;2022-08-14T08:32:54;30.60;72.50
61807;DHT22;47726;52.766;6.606;2022-08-14T08:35:26;30.70;71.70
61807;DHT22;47726;52.766;6.606;2022-08-14T08:37:53;30.90;71.90
61807;DHT22;47726;52.766;6.606;2022-08-14T08:40:28;31.00;71.30
61807;DHT22;47726;52.766;6.606;2022-08-14T08:42:54;31.10;69.40
61807;DHT22;47726;52.766;6.606;2022-08-14T08:45:20;31.10;68.80
61807;DHT22;47726;52.766;6.606;2022-08-14T08:47:48;31.10;68.40
61807;DHT22;47726;52.766;6.606;2022-08-14T08:50:36;31.10;68.40
61807;DHT22;47726;52.766;6.606;2022-08-14T08:53:07;31.30;68.10
61807;DHT22;47726;52.766;6.606;2022-08-14T08:55:39;31.30;67.30
61807;DHT22;47726;52.766;6.606;2022-08-14T08:58:10;31.40;66.80
61807;DHT22;47726;52.766;6.606;2022-08-14T09:00:38;31.30;66.30
61807;DHT22;47726;52.766;6.606;2022-08-14T09:03:13;31.40;66.60
61807;DHT22;47726;52.766;6.606;2022-08-14T09:05:57;31.60;66.50
61807;DHT22;47726;52.766;6.606;2022-08-14T09:08:26;31.60;66.20
61807;DHT22;47726;52.766;6.606;2022-08-14T09:10:53;31.80;65.10
61807;DHT22;47726;52.766;6.606;2022-08-14T09:13:21;31.80;65.10
61807;DHT22;47726;52.766;6.606;2022-08-14T09:15:50;31.80;64.40
61807;DHT22;47726;52.766;6.606;2022-08-14T09:18:19;31.90;64.30
61807;DHT22;47726;52.766;6.606;2022-08-14T09:20:51;32.00;64.30
61807;DHT22;47726;52.766;6.606;2022-08-14T09:23:18;32.00;63.50
61807;DHT22;47726;52.766;6.606;2022-08-14T09:25:46;32.00;63.00
61807;DHT22;47726;52.766;6.606;2022-08-14T09:28:14;32.10;63.30
61807;DHT22;47726;52.766;6.606;2022-08-14T09:30:49;32.20;63.40
61807;DHT22;47726;52.766;6.606;2022-08-14T09:41:57;32.70;62.40
61807;DHT22;47726;52.766;6.606;2022-08-14T09:44:53;32.80;62.50
61807;DHT22;47726;52.766;6.606;2022-08-14T09:52:59;33.10;62.00
61807;DHT22;47726;52.766;6.606;2022-08-14T09:55:28;33.10;60.70
61807;DHT22;47726;52.766;6.606;2022-08-14T09:58:17;33.00;60.30
61807;DHT22;47726;52.766;6.606;2022-08-14T10:00:48;32.90;60.00
61807;DHT22;47726;52.766;6.606;2022-08-14T10:03:29;32.90;60.50
61807;DHT22;47726;52.766;6.606;2022-08-14T10:06:11;32.80;59.10
61807;DHT22;47726;52.766;6.606;2022-08-14T10:08:51;32.90;59.40
61807;DHT22;47726;52.766;6.606;2022-08-14T10:11:24;33.00;60.20
61807;DHT22;47726;52.766;6.606;2022-08-14T10:13:53;33.00;60.30
61807;DHT22;47726;52.766;6.606;2022-08-14T10:16:20;33.10;59.80
61807;DHT22;47726;52.766;6.606;2022-08-14T10:18:49;33.10;59.30
61807;DHT22;47726;52.766;6.606;2022-08-14T10:21:25;33.10;59.10
61807;DHT22;47726;52.766;6.606;2022-08-14T10:23:50;33.20;59.50
61807;DHT22;47726;52.766;6.606;2022-08-14T10:26:18;33.30;59.80
61807;DHT22;47726;52.766;6.606;2022-08-14T10:28:50;33.40;60.00
61807;DHT22;47726;52.766;6.606;2022-08-14T10:31:19;33.40;59.10
61807;DHT22;47726;52.766;6.606;2022-08-14T10:34:06;33.40;59.20
61807;DHT22;47726;52.766;6.606;2022-08-14T10:39:14;33.50;57.70
61807;DHT22;47726;52.766;6.606;2022-08-14T10:41:42;33.50;57.90
61807;DHT22;47726;52.766;6.606;2022-08-14T10:46:44;33.50;57.40
61807;DHT22;47726;52.766;6.606;2022-08-14T10:49:21;33.50;57.40
61807;DHT22;47726;52.766;6.606;2022-08-14T10:52:02;33.50;57.30
61807;DHT22;47726;52.766;6.606;2022-08-14T10:59:57;33.70;57.00
61807;DHT22;47726;52.766;6.606;2022-08-14T11:02:34;33.60;56.20
61807;DHT22;47726;52.766;6.606;2022-08-14T11:07:28;33.50;56.90
61807;DHT22;47726;52.766;6.606;2022-08-14T11:10:05;33.60;57.30
61807;DHT22;47726;52.766;6.606;2022-08-14T11:12:44;33.60;56.10
61807;DHT22;47726;52.766;6.606;2022-08-14T11:15:21;33.70;56.90
61807;DHT22;47726;52.766;6.606;2022-08-14T11:17:47;33.80;56.80
61807;DHT22;47726;52.766;6.606;2022-08-14T11:20:17;33.80;56.00
61807;DHT22;47726;52.766;6.606;2022-08-14T11:22:44;33.70;55.70
61807;DHT22;47726;52.766;6.606;2022-08-14T11:25:13;33.70;55.70
61807;DHT22;47726;52.766;6.606;2022-08-14T11:27:43;33.70;55.50
61807;DHT22;47726;52.766;6.606;2022-08-14T11:30:24;33.70;56.20
61807;DHT22;47726;52.766;6.606;2022-08-14T11:32:51;33.60;55.20
61807;DHT22;47726;52.766;6.606;2022-08-14T11:35:20;33.60;55.90
61807;DHT22;47726;52.766;6.606;2022-08-14T11:38:00;33.70;56.00
61807;DHT22;47726;52.766;6.606;2022-08-14T11:40:31;33.90;56.10
61807;DHT22;47726;52.766;6.606;2022-08-14T11:43:00;33.90;56.20
61807;DHT22;47726;52.766;6.606;2022-08-14T11:45:28;33.90;55.70
61807;DHT22;47726;52.766;6.606;2022-08-14T11:47:57;33.90;55.70
61807;DHT22;47726;52.766;6.606;2022-08-14T11:50:26;33.90;55.10
61807;DHT22;47726;52.766;6.606;2022-08-14T11:52:52;33.80;55.20
61807;DHT22;47726;52.766;6.606;2022-08-14T11:55:21;33.80;55.70
61807;DHT22;47726;52.766;6.606;2022-08-14T11:57:57;33.90;55.80
61807;DHT22;47726;52.766;6.606;2022-08-14T12:00:23;34.00;56.10
61807;DHT22;47726;52.766;6.606;2022-08-14T12:02:50;34.00;55.30
61807;DHT22;47726;52.766;6.606;2022-08-14T12:05:27;34.00;54.60
61807;DHT22;47726;52.766;6.606;2022-08-14T12:07:54;33.90;53.90
61807;DHT22;47726;52.766;6.606;2022-08-14T12:10:20;33.80;54.70
61807;DHT22;47726;52.766;6.606;2022-08-14T12:12:46;33.70;54.30
61807;DHT22;47726;52.766;6.606;2022-08-14T12:15:13;33.70;55.20
61807;DHT22;47726;52.766;6.606;2022-08-14T12:17:45;33.70;54.30
61807;DHT22;47726;52.766;6.606;2022-08-14T12:20:13;33.60;54.20
61807;DHT22;47726;52.766;6.606;2022-08-14T12:22:44;33.60;54.70
61807;DHT22;47726;52.766;6.606;2022-08-14T12:25:22;33.60;54.70
61807;DHT22;47726;52.766;6.606;2022-08-14T12:27:50;33.70;53.10
61807;DHT22;47726;52.766;6.606;2022-08-14T12:33:03;33.60;53.20
61807;DHT22;47726;52.766;6.606;2022-08-14T12:35:43;33.60;53.50
61807;DHT22;47726;52.766;6.606;2022-08-14T12:38:11;33.60;54.20
61807;DHT22;47726;52.766;6.606;2022-08-14T12:40:51;33.70;54.70
61807;DHT22;47726;52.766;6.606;2022-08-14T12:43:18;33.70;54.20
61807;DHT22;47726;52.766;6.606;2022-08-14T12:45:47;33.70;53.80
61807;DHT22;47726;52.766;6.606;2022-08-14T12:48:20;33.60;53.50
61807;DHT22;47726;52.766;6.606;2022-08-14T12:50:46;33.60;53.20
61807;DHT22;47726;52.766;6.606;2022-08-14T12:53:13;33.60;53.10
61807;DHT22;47726;52.766;6.606;2022-08-14T12:55:40;33.50;53.20
61807;DHT22;47726;52.766;6.606;2022-08-14T12:58:07;33.40;53.10
61807;DHT22;47726;52.766;6.606;2022-08-14T13:00:35;33.20;53.30
61807;DHT22;47726;52.766;6.606;2022-08-14T13:03:03;33.10;53.40
61807;DHT22;47726;52.766;6.606;2022-08-14T13:05:34;33.10;54.00
61807;DHT22;47726;52.766;6.606;2022-08-14T13:08:05;33.10;53.60
61807;DHT22;47726;52.766;6.606;2022-08-14T13:10:33;33.00;53.40
61807;DHT22;47726;52.766;6.606;2022-08-14T13:12:59;32.80;53.00
61807;DHT22;47726;52.766;6.606;2022-08-14T13:15:25;32.80;53.20
61807;DHT22;47726;52.766;6.606;2022-08-14T13:17:53;32.90;53.60
61807;DHT22;47726;52.766;6.606;2022-08-14T13:20:23;32.90;54.00
61807;DHT22;47726;52.766;6.606;2022-08-14T13:22:50;33.00;54.40
61807;DHT22;47726;52.766;6.606;2022-08-14T13:25:20;33.00;54.20
61807;DHT22;47726;52.766;6.606;2022-08-14T13:27:49;33.00;53.80
61807;DHT22;47726;52.766;6.606;2022-08-14T13:30:16;33.00;53.80
61807;DHT22;47726;52.766;6.606;2022-08-14T13:32:43;33.00;53.50
61807;DHT22;47726;52.766;6.606;2022-08-14T13:35:11;33.00;53.60
61807;DHT22;47726;52.766;6.606;2022-08-14T13:37:37;33.00;52.80
61807;DHT22;47726;52.766;6.606;2022-08-14T13:40:03;32.90;53.00
61807;DHT22;47726;52.766;6.606;2022-08-14T13:42:30;32.90;53.00
61807;DHT22;47726;52.766;6.606;2022-08-14T13:44:57;32.90;53.70
61807;DHT22;47726;52.766;6.606;2022-08-14T13:47:26;32.90;54.10
61807;DHT22;47726;52.766;6.606;2022-08-14T13:49:57;32.90;53.00
61807;DHT22;47726;52.766;6.606;2022-08-14T13:52:38;32.90;53.20
61807;DHT22;47726;52.766;6.606;2022-08-14T13:55:05;33.00;53.40
61807;DHT22;47726;52.766;6.606;2022-08-14T13:57:41;33.00;53.00
61807;DHT22;47726;52.766;6.606;2022-08-14T14:00:10;33.10;53.20
61807;DHT22;47726;52.766;6.606;2022-08-14T14:02:45;33.10;52.40
61807;DHT22;47726;52.766;6.606;2022-08-14T14:05:17;33.10;52.70
61807;DHT22;47726;52.766;6.606;2022-08-14T14:07:45;33.10;52.60
61807;DHT22;47726;52.766;6.606;2022-08-14T14:10:13;33.10;52.50
61807;DHT22;47726;52.766;6.606;2022-08-14T14:12:41;33.10;52.50
61807;DHT22;47726;52.766;6.606;2022-08-14T14:15:10;33.10;52.60
61807;DHT22;47726;52.766;6.606;2022-08-14T14:17:37;33.10;52.30
61807;DHT22;47726;52.766;6.606;2022-08-14T14:20:05;33.10;52.20
61807;DHT22;47726;52.766;6.606;2022-08-14T14:22:31;33.10;52.10
61807;DHT22;47726;52.766;6.606;2022-08-14T14:24:57;33.10;52.50
61807;DHT22;47726;52.766;6.606;2022-08-14T14:27:25;33.10;52.50
61807;DHT22;47726;52.766;6.606;2022-08-14T14:29:51;33.10;51.80
61807;DHT22;47726;52.766;6.606;2022-08-14T14:32:26;33.10;51.90
61807;DHT22;47726;52.766;6.606;2022-08-14T14:34:53;33.10;52.40
61807;DHT22;47726;52.766;6.606;2022-08-14T14:37:20;33.10;52.50
61807;DHT22;47726;52.766;6.606;2022-08-14T14:39:47;33.20;52.40
61807;DHT22;47726;52.766;6.606;2022-08-14T14:42:17;33.20;52.40
61807;DHT22;47726;52.766;6.606;2022-08-14T14:44:43;33.20;52.30
61807;DHT22;47726;52.766;6.606;2022-08-14T14:47:12;33.10;52.50
61807;DHT22;47726;52.766;6.606;2022-08-14T14:49:40;33.20;52.50
61807;DHT22;47726;52.766;6.606;2022-08-14T14:52:08;33.20;52.20
61807;DHT22;47726;52.766;6.606;2022-08-14T14:54:35;33.20;52.10
61807;DHT22;47726;52.766;6.606;2022-08-14T14:57:02;33.10;52.30
61807;DHT22;47726;52.766;6.606;2022-08-14T14:59:29;33.10;52.30
61807;DHT22;47726;52.766;6.606;2022-08-14T15:01:59;33.10;52.50
61807;DHT22;47726;52.766;6.606;2022-08-14T15:04:26;33.10;52.60
61807;DHT22;47726;52.766;6.606;2022-08-14T15:06:52;33.10;52.70
61807;DHT22;47726;52.766;6.606;2022-08-14T15:09:18;33.10;52.90
61807;DHT22;47726;52.766;6.606;2022-08-14T15:11:44;33.20;52.70
61807;DHT22;47726;52.766;6.606;2022-08-14T15:14:10;33.20;52.10
61807;DHT22;47726;52.766;6.606;2022-08-14T15:16:36;33.10;52.10
61807;DHT22;47726;52.766;6.606;2022-08-14T15:19:02;33.10;52.20
61807;DHT22;47726;52.766;6.606;2022-08-14T15:21:29;33.00;52.60
61807;DHT22;47726;52.766;6.606;2022-08-14T15:23:56;33.00;52.70
61807;DHT22;47726;52.766;6.606;2022-08-14T15:26:23;33.00;52.70
61807;DHT22;47726;52.766;6.606;2022-08-14T15:28:50;33.00;52.60
61807;DHT22;47726;52.766;6.606;2022-08-14T15:31:16;32.90;52.60
61807;DHT22;47726;52.766;6.606;2022-08-14T15:33:42;32.90;52.30
61807;DHT22;47726;52.766;6.606;2022-08-14T15:36:26;32.90;52.40
61807;DHT22;47726;52.766;6.606;2022-08-14T15:38:54;32.80;52.50
61807;DHT22;47726;52.766;6.606;2022-08-14T15:41:20;32.80;52.40
61807;DHT22;47726;52.766;6.606;2022-08-14T15:43:46;32.80;52.60
61807;DHT22;47726;52.766;6.606;2022-08-14T15:46:11;32.70;52.40
61807;DHT22;47726;52.766;6.606;2022-08-14T15:48:38;32.80;52.20
61807;DHT22;47726;52.766;6.606;2022-08-14T15:51:04;32.80;52.10
61807;DHT22;47726;52.766;6.606;2022-08-14T15:53:29;32.70;51.90
61807;DHT22;47726;52.766;6.606;2022-08-14T15:55:55;32.70;51.90
61807;DHT22;47726;52.766;6.606;2022-08-14T15:58:25;32.70;52.20
61807;DHT22;47726;52.766;6.606;2022-08-14T16:00:52;32.60;52.00
61807;DHT22;47726;52.766;6.606;2022-08-14T16:03:37;32.60;52.30
61807;DHT22;47726;52.766;6.606;2022-08-14T16:06:04;32.60;52.00
61807;DHT22;47726;52.766;6.606;2022-08-14T16:08:30;32.50;52.10
61807;DHT22;47726;52.766;6.606;2022-08-14T16:11:02;32.40;52.10
61807;DHT22;47726;52.766;6.606;2022-08-14T16:13:29;32.40;52.00